Time;durP1;ratioP1;P1;durP2;ratioP2;P2;SDS_P1;SDS_P2;PMS_P1;PMS_P2;Temp;Humidity;BMP_temperature;BMP_pressure;BME280_temperature;BME280_humidity;BME280_pressure;Samples;Min_cycle;Max_cycle;Signal;HPM_P1;HPM_P2
2022/01/17 00:01:32;;;;;;;23.23;11.73;;;2.60;78.50;;;;;;5097689;28;20028;-83
2022/01/17 00:03:58;;;;;;;32.57;13.50;;;2.60;78.60;;;;;;5105031;28;20020;-83
2022/01/17 00:06:23;;;;;;;;;;;2.60;78.60;;;;;;5099961;28;20039;-84
2022/01/17 00:08:49;;;;;;;25.03;10.87;;;2.60;78.80;;;;;;5104187;28;19954;-85
2022/01/17 00:11:16;;;;;;;22.90;8.30;;;2.60;78.50;;;;;;5103847;28;20023;-84
2022/01/17 00:13:43;;;;;;;18.87;8.10;;;2.60;78.70;;;;;;5102939;28;20050;-84
2022/01/17 00:16:13;;;;;;;19.03;7.83;;;2.60;78.70;;;;;;5105227;28;20020;-83
2022/01/17 00:21:05;;;;;;;;;;;2.70;78.70;;;;;;5109713;28;20023;-83
2022/01/17 00:23:32;;;;;;;25.53;10.57;;;2.70;78.70;;;;;;5108034;28;19919;-84
2022/01/17 00:25:58;;;;;;;24.50;10.43;;;2.80;78.50;;;;;;5110674;28;20069;-84
2022/01/17 00:28:23;;;;;;;18.70;8.60;;;2.70;78.70;;;;;;5108200;28;20032;-83
2022/01/17 00:30:49;;;;;;;;;;;2.70;78.70;;;;;;5103350;28;20031;-85
2022/01/17 00:33:14;;;;;;;20.80;9.27;;;2.70;78.80;;;;;;5100283;28;19908;-82
2022/01/17 00:35:40;;;;;;;15.30;8.27;;;2.80;78.60;;;;;;5102852;28;20028;-84
2022/01/17 00:38:06;;;;;;;;;;;2.80;78.80;;;;;;5110194;28;20024;-84
2022/01/17 00:40:32;;;;;;;12.77;7.13;;;2.80;79.00;;;;;;5099763;28;19911;-83
2022/01/17 00:42:57;;;;;;;;;;;2.80;78.80;;;;;;5111565;28;20118;-84
2022/01/17 00:45:30;;;;;;;26.93;10.23;;;2.80;78.90;;;;;;5101290;28;20108;-85
2022/01/17 00:47:57;;;;;;;24.37;12.57;;;2.80;78.90;;;;;;5098733;28;20469;-85
2022/01/17 00:50:27;;;;;;;28.93;12.10;;;2.80;78.90;;;;;;5103579;28;20018;-84
2022/01/17 00:52:53;;;;;;;21.47;9.03;;;2.80;79.00;;;;;;5102512;28;20097;-82
2022/01/17 00:55:18;;;;;;;;;;;2.80;79.00;;;;;;5105329;28;20024;-84
2022/01/17 00:57:44;;;;;;;18.13;9.87;;;2.90;79.20;;;;;;5104054;28;19915;-83
2022/01/17 01:00:10;;;;;;;;;;;2.90;78.90;;;;;;5105115;28;20153;-85
2022/01/17 01:02:36;;;;;;;8.47;3.83;;;2.90;79.10;;;;;;5096902;28;19994;-85
2022/01/17 01:05:04;;;;;;;15.30;6.80;;;2.90;78.90;;;;;;5101636;28;20031;-85
2022/01/17 01:07:29;;;;;;;24.43;11.50;;;2.90;79.10;;;;;;5106355;28;20057;-84
2022/01/17 01:10:10;;;;;;;;;;;2.80;79.20;;;;;;5101270;28;20019;-85
2022/01/17 01:12:41;;;;;;;9.97;5.07;;;2.90;79.30;;;;;;5103848;28;19911;-84
2022/01/17 01:15:17;;;;;;;11.97;6.40;;;2.90;79.10;;;;;;5101727;28;20028;-85
2022/01/17 01:17:52;;;;;;;14.43;7.30;;;3.00;79.00;;;;;;5097405;28;20052;-84
2022/01/17 01:20:46;;;;;;;19.80;9.47;;;3.00;79.10;;;;;;5106032;28;20181;-85
2022/01/17 01:28:40;;;;;;;13.77;6.93;;;3.10;78.70;;;;;;5103859;28;20507;-84
2022/01/17 01:31:13;;;;;;;;;;;3.10;78.80;;;;;;5104424;28;20024;-84
2022/01/17 01:33:48;;;;;;;13.17;5.87;;;3.20;78.80;;;;;;5106461;28;20027;-85
2022/01/17 01:36:22;;;;;;;22.47;9.73;;;3.20;78.30;;;;;;5100946;28;20023;-84
2022/01/17 01:38:48;;;;;;;12.40;4.93;;;3.20;78.50;;;;;;5105270;28;20024;-84
2022/01/17 01:41:14;;;;;;;16.40;7.70;;;3.20;78.60;;;;;;5101542;28;20119;-82
2022/01/17 01:43:40;;;;;;;17.10;7.30;;;3.20;78.70;;;;;;5107464;28;20129;-84
2022/01/17 01:46:06;;;;;;;14.30;6.88;;;3.20;78.60;;;;;;5106421;28;20028;-84
2022/01/17 01:48:34;;;;;;;11.15;4.93;;;3.30;78.60;;;;;;5101507;28;20028;-83
2022/01/17 01:51:00;;;;;;;21.07;8.93;;;3.30;78.50;;;;;;5100516;28;20016;-85
2022/01/17 01:53:26;;;;;;;14.35;6.35;;;3.30;78.30;;;;;;5103923;28;20548;-84
2022/01/17 01:55:55;;;;;;;19.43;9.50;;;3.30;78.30;;;;;;5102110;28;20073;-84
2022/01/17 01:58:22;;;;;;;19.27;9.60;;;3.30;78.20;;;;;;5101285;28;20035;-84
2022/01/17 02:00:48;;;;;;;20.43;9.77;;;3.30;78.10;;;;;;5106485;28;20038;-85
2022/01/17 02:03:14;;;;;;;21.17;10.60;;;3.30;78.10;;;;;;5101131;28;20023;-85
2022/01/17 02:05:40;;;;;;;;;;;3.30;78.10;;;;;;5113467;28;20115;-84
2022/01/17 02:08:08;;;;;;;20.37;6.17;;;3.30;78.10;;;;;;5107765;28;19962;-85
2022/01/17 02:10:34;;;;;;;22.23;9.60;;;3.30;77.70;;;;;;5107055;28;20045;-85
2022/01/17 02:12:59;;;;;;;;;;;3.30;77.70;;;;;;5102666;28;20111;-84
2022/01/17 02:15:25;;;;;;;18.67;7.80;;;3.40;77.90;;;;;;5101940;28;19930;-84
2022/01/17 02:17:55;;;;;;;;;;;3.40;77.60;;;;;;5107744;28;20058;-84
2022/01/17 02:21:10;;;;;;;22.50;10.77;;;3.30;77.70;;;;;;5106054;28;19914;-84
2022/01/17 02:23:20;;;;;;;13.50;6.97;;;3.30;77.60;;;;;;5111646;28;20084;-85
2022/01/17 02:25:46;;;;;;;19.30;9.88;;;3.30;77.70;;;;;;5106275;28;20036;-84
2022/01/17 02:28:11;;;;;;;20.40;10.40;;;3.30;77.70;;;;;;5110540;28;20019;-84
2022/01/17 02:30:37;;;;;;;19.25;9.40;;;3.40;77.70;;;;;;5108760;28;20369;-84
2022/01/17 02:33:04;;;;;;;18.88;9.93;;;3.40;77.60;;;;;;5113509;28;20012;-84
2022/01/17 02:35:30;;;;;;;17.93;8.67;;;3.30;77.60;;;;;;5089846;28;20027;-85
2022/01/17 02:37:56;;;;;;;;;;;3.40;77.60;;;;;;5111189;28;20028;-84
2022/01/17 02:40:23;;;;;;;17.27;7.83;;;3.40;77.60;;;;;;5110808;28;19950;-85
2022/01/17 02:42:51;;;;;;;22.40;9.73;;;3.50;77.20;;;;;;5107829;28;20028;-85
2022/01/17 02:48:08;;;;;;;15.27;7.43;;;3.40;77.20;;;;;;5108874;28;20034;-85
2022/01/17 02:50:35;;;;;;;21.97;9.87;;;3.50;77.20;;;;;;5125692;28;20032;-84
2022/01/17 02:53:04;;;;;;;12.67;6.17;;;3.50;77.10;;;;;;5124809;28;20043;-84
2022/01/17 02:55:30;;;;;;;11.87;5.80;;;3.50;77.10;;;;;;5126664;28;20015;-84
2022/01/17 02:57:56;;;;;;;;;;;3.50;76.80;;;;;;5129731;28;20012;-85
2022/01/17 03:00:21;;;;;;;15.30;7.63;;;3.60;76.60;;;;;;5129080;28;19912;-84
2022/01/17 03:02:49;;;;;;;15.60;7.22;;;3.60;76.10;;;;;;5134658;28;20035;-85
2022/01/17 03:05:16;;;;;;;15.23;7.83;;;3.60;76.30;;;;;;5127612;28;20019;-84
2022/01/17 03:07:42;;;;;;;12.70;7.03;;;3.60;76.30;;;;;;5133919;28;20107;-86
2022/01/17 03:10:15;;;;;;;;;;;3.60;76.10;;;;;;5123620;28;20034;-85
2022/01/17 03:12:41;;;;;;;14.67;7.60;;;3.70;76.00;;;;;;5109078;28;19914;-85
2022/01/17 03:15:07;;;;;;;10.73;4.53;;;3.70;75.60;;;;;;5117839;28;20020;-84
2022/01/17 03:17:32;;;;;;;10.00;5.20;;;3.70;75.50;;;;;;5111371;28;20111;-85
2022/01/17 03:19:58;;;;;;;;;;;3.70;75.70;;;;;;5108554;28;20070;-84
2022/01/17 03:22:23;;;;;;;10.30;5.13;;;3.70;75.60;;;;;;5105971;28;19908;-84
2022/01/17 03:24:49;;;;;;;;;;;3.80;75.30;;;;;;5111489;28;20110;-85
2022/01/17 03:27:14;;;;;;;11.93;6.13;;;3.80;75.30;;;;;;5108169;28;19954;-85
2022/01/17 03:29:40;;;;;;;9.30;4.95;;;3.80;75.10;;;;;;5101797;28;20023;-84
2022/01/17 03:32:06;;;;;;;13.55;6.07;;;3.80;75.20;;;;;;5104243;28;20015;-83
2022/01/17 03:34:32;;;;;;;10.43;4.22;;;3.70;75.30;;;;;;5108773;28;20028;-85
2022/01/17 03:36:57;;;;;;;7.45;3.38;;;3.80;75.40;;;;;;5106052;28;20012;-85
2022/01/17 03:39:23;;;;;;;;;;;3.80;75.50;;;;;;5109300;28;20022;-85
2022/01/17 03:41:48;;;;;;;7.10;4.27;;;3.80;75.20;;;;;;5107393;28;20129;-85
2022/01/17 03:44:14;;;;;;;;;;;3.80;74.90;;;;;;5099760;28;20028;-84
2022/01/17 03:46:39;;;;;;;8.73;4.87;;;3.80;75.10;;;;;;5107114;28;19908;-84
2022/01/17 03:49:05;;;;;;;;;;;3.80;75.20;;;;;;5105965;28;20511;-85
2022/01/17 03:51:30;;;;;;;4.57;2.17;;;3.80;75.60;;;;;;5103693;28;19911;-84
2022/01/17 03:53:56;;;;;;;12.45;7.63;;;3.80;75.50;;;;;;5108514;28;20022;-85
2022/01/17 03:56:21;;;;;;;;;;;3.70;75.70;;;;;;5101871;28;20024;-85
2022/01/17 03:58:49;;;;;;;10.87;5.10;;;3.70;76.10;;;;;;5101832;28;19957;-84
2022/01/17 04:01:14;;;;;;;6.17;3.17;;;3.70;76.10;;;;;;5106008;28;20046;-84
2022/01/17 04:03:40;;;;;;;16.05;7.88;;;3.60;76.30;;;;;;5105672;28;20027;-84
2022/01/17 04:06:05;;;;;;;9.70;5.80;;;3.60;76.60;;;;;;5104188;28;20032;-85
2022/01/17 04:08:31;;;;;;;;;;;3.60;76.60;;;;;;5101102;28;20028;-85
2022/01/17 04:10:57;;;;;;;7.17;3.60;;;3.60;76.90;;;;;;5101450;28;19908;-84
2022/01/17 04:13:23;;;;;;;;;;;3.60;76.70;;;;;;5103779;28;20024;-85
2022/01/17 04:15:49;;;;;;;5.87;3.77;;;3.60;77.00;;;;;;5104972;28;19986;-85
2022/01/17 04:18:16;;;;;;;8.05;4.07;;;3.60;77.10;;;;;;5105694;28;20185;-85
2022/01/17 04:20:42;;;;;;;9.37;5.03;;;3.60;77.20;;;;;;5107763;28;21952;-85
2022/01/17 04:23:12;;;;;;;15.67;7.33;;;3.50;77.50;;;;;;5102134;28;20073;-85
2022/01/17 04:25:40;;;;;;;10.83;6.03;;;3.50;77.60;;;;;;5100997;28;20024;-84
2022/01/17 04:28:08;;;;;;;7.83;4.30;;;3.50;77.70;;;;;;5109362;28;20480;-84
2022/01/17 04:30:35;;;;;;;10.50;4.23;;;3.50;77.80;;;;;;5103777;28;20057;-85
2022/01/17 04:33:00;;;;;;;14.40;7.70;;;3.50;78.00;;;;;;5102218;28;20035;-84
2022/01/17 04:35:28;;;;;;;12.07;6.30;;;3.50;78.10;;;;;;5108257;28;20465;-84
2022/01/17 04:37:59;;;;;;;15.40;6.80;;;3.50;78.10;;;;;;5105883;28;20457;-84
2022/01/17 04:40:25;;;;;;;14.40;8.73;;;3.50;78.10;;;;;;5095531;28;20469;-84
2022/01/17 04:42:54;;;;;;;12.50;6.63;;;3.50;78.10;;;;;;5106296;28;20027;-83
2022/01/17 04:45:20;;;;;;;15.47;6.53;;;3.50;78.10;;;;;;5099937;28;20015;-84
2022/01/17 04:47:49;;;;;;;14.97;8.67;;;3.50;78.10;;;;;;5103155;28;20035;-84
2022/01/17 04:50:21;;;;;;;13.37;6.33;;;3.50;78.10;;;;;;5110995;28;20023;-84
2022/01/17 04:52:48;;;;;;;17.17;9.47;;;3.60;78.00;;;;;;5085054;28;20043;-84
2022/01/17 04:55:15;;;;;;;20.00;10.53;;;3.60;78.00;;;;;;5107552;28;21817;-83
2022/01/17 04:57:43;;;;;;;20.13;10.40;;;3.60;77.80;;;;;;5101464;28;20024;-84
2022/01/17 05:00:11;;;;;;;14.97;8.00;;;3.60;77.80;;;;;;5105992;28;20023;-84
2022/01/17 05:02:37;;;;;;;9.93;5.07;;;3.70;77.80;;;;;;5105938;28;20028;-84
2022/01/17 05:05:04;;;;;;;14.10;7.70;;;3.70;77.80;;;;;;5101714;28;20027;-84
2022/01/17 05:07:31;;;;;;;23.33;11.67;;;3.70;77.70;;;;;;5108962;28;20026;-85
2022/01/17 05:09:57;;;;;;;26.20;12.30;;;3.70;77.60;;;;;;5105484;28;20024;-84
2022/01/17 05:12:23;;;;;;;12.57;5.63;;;3.80;77.30;;;;;;5106962;28;20034;-84
2022/01/17 05:14:51;;;;;;;17.70;10.47;;;3.80;77.40;;;;;;5101581;28;20491;-84
2022/01/17 05:19:57;;;;;;;20.60;10.10;;;3.80;77.10;;;;;;5106757;28;20066;-84
2022/01/17 05:22:32;;;;;;;11.47;5.53;;;3.80;77.10;;;;;;5099743;28;20353;-84
2022/01/17 05:25:02;;;;;;;14.80;9.20;;;3.90;76.80;;;;;;5102261;28;20136;-84
2022/01/17 05:27:28;;;;;;;14.03;7.47;;;3.90;76.70;;;;;;5109633;28;20028;-84
2022/01/17 05:29:53;;;;;;;16.50;8.50;;;3.80;76.70;;;;;;5098595;28;20035;-84
2022/01/17 05:32:20;;;;;;;12.50;6.28;;;3.90;76.60;;;;;;5102183;28;20076;-84
2022/01/17 05:34:46;;;;;;;17.27;8.37;;;3.90;76.50;;;;;;5108419;28;20016;-85
2022/01/17 05:37:14;;;;;;;22.37;11.17;;;3.90;76.40;;;;;;5104573;28;20024;-85
2022/01/17 05:39:42;;;;;;;12.20;6.70;;;3.90;76.40;;;;;;5105536;28;20026;-84
2022/01/17 05:42:10;;;;;;;16.50;8.23;;;3.90;76.40;;;;;;5102503;28;20116;-84
2022/01/17 05:44:35;;;;;;;20.47;10.50;;;3.90;76.30;;;;;;5102810;28;20016;-85
2022/01/17 05:47:01;;;;;;;14.05;6.47;;;3.90;76.20;;;;;;5100231;28;20119;-84
2022/01/17 05:49:27;;;;;;;14.85;7.40;;;4.00;76.10;;;;;;5103981;28;20097;-84
2022/01/17 05:51:52;;;;;;;20.77;8.75;;;4.10;75.70;;;;;;5108314;28;20027;-83
2022/01/17 05:54:18;;;;;;;17.85;7.50;;;4.10;75.50;;;;;;5108492;28;20019;-84
2022/01/17 05:56:44;;;;;;;;;;;4.10;75.40;;;;;;5111998;28;20065;-85
2022/01/17 05:59:10;;;;;;;10.53;4.97;;;4.10;75.50;;;;;;5111432;28;20015;-84
2022/01/17 06:01:39;;;;;;;14.60;8.13;;;4.10;75.20;;;;;;5112562;28;20668;-85
2022/01/17 06:04:05;;;;;;;12.47;5.17;;;4.10;75.40;;;;;;5110261;28;20413;-85
2022/01/17 06:06:31;;;;;;;16.57;7.87;;;4.10;75.50;;;;;;5111527;28;20031;-85
2022/01/17 06:08:56;;;;;;;19.52;10.43;;;4.10;75.50;;;;;;5109112;28;20020;-86
2022/01/17 06:11:22;;;;;;;;;;;4.10;75.50;;;;;;5102233;28;20067;-84
2022/01/17 06:13:47;;;;;;;12.50;6.07;;;4.10;75.50;;;;;;5106390;28;20321;-83
2022/01/17 06:16:13;;;;;;;;;;;4.10;75.30;;;;;;5103269;28;20031;-84
2022/01/17 06:18:38;;;;;;;7.80;4.03;;;4.10;75.50;;;;;;5109405;28;20003;-84
2022/01/17 06:21:05;;;;;;;10.23;5.97;;;4.10;75.20;;;;;;5111879;28;20028;-84
2022/01/17 06:23:40;;;;;;;20.50;10.47;;;4.10;75.30;;;;;;5082967;28;20034;-84
2022/01/17 06:26:06;;;;;;;23.63;9.93;;;4.10;75.40;;;;;;5111889;28;20035;-85
2022/01/17 06:28:31;;;;;;;;;;;4.10;75.30;;;;;;5115912;28;20047;-85
2022/01/17 06:30:57;;;;;;;11.63;6.80;;;4.20;75.30;;;;;;5125523;28;19908;-83
2022/01/17 06:33:22;;;;;;;18.88;8.55;;;4.20;74.90;;;;;;5124073;28;20035;-83
2022/01/17 06:35:48;;;;;;;9.52;4.65;;;4.30;74.70;;;;;;5117260;28;20038;-82
2022/01/17 06:38:13;;;;;;;;;;;4.30;74.70;;;;;;5109744;28;20053;-82
2022/01/17 06:40:39;;;;;;;10.17;5.37;;;4.30;74.30;;;;;;5121377;28;19911;-82
2022/01/17 06:43:08;;;;;;;;;;;4.40;73.80;;;;;;5120319;28;20039;-83
2022/01/17 06:45:34;;;;;;;18.60;9.17;;;4.40;73.70;;;;;;5117744;28;19908;-83
2022/01/17 06:48:01;;;;;;;17.60;7.40;;;4.40;73.60;;;;;;5118960;28;20023;-83
2022/01/17 06:50:26;;;;;;;;;;;4.40;73.80;;;;;;5117295;28;20053;-83
2022/01/17 06:52:52;;;;;;;13.67;6.63;;;4.40;74.00;;;;;;5104180;28;19915;-83
2022/01/17 06:55:17;;;;;;;;;;;4.40;73.90;;;;;;5108701;28;20020;-87
2022/01/17 06:57:43;;;;;;;13.43;6.27;;;4.40;74.00;;;;;;5119009;28;20002;-87
2022/01/17 07:00:09;;;;;;;;;;;4.50;73.80;;;;;;5105578;28;20095;-91
2022/01/17 07:02:35;;;;;;;12.00;5.97;;;4.50;73.60;;;;;;5106165;28;19908;-85
2022/01/17 07:05:00;;;;;;;7.57;3.10;;;4.50;73.40;;;;;;5109402;28;20031;-85
2022/01/17 07:07:26;;;;;;;12.52;6.07;;;4.50;73.60;;;;;;5109608;28;20042;-85
2022/01/17 07:09:52;;;;;;;10.10;5.32;;;4.50;73.80;;;;;;5107870;28;20532;-85
2022/01/17 07:12:17;;;;;;;;;;;4.50;73.80;;;;;;5114132;28;20015;-86
2022/01/17 07:14:43;;;;;;;9.40;4.43;;;4.50;73.90;;;;;;5105390;28;20304;-85
2022/01/17 07:17:09;;;;;;;;;;;4.50;74.00;;;;;;5108753;28;20040;-85
2022/01/17 07:19:36;;;;;;;13.70;4.47;;;4.40;74.30;;;;;;5103448;28;19916;-85
2022/01/17 07:22:03;;;;;;;14.17;7.03;;;4.50;74.30;;;;;;5108518;28;20051;-85
2022/01/17 07:24:28;;;;;;;10.93;5.57;;;4.40;74.70;;;;;;5104000;28;20020;-85
2022/01/17 07:26:54;;;;;;;19.33;8.45;;;4.30;75.20;;;;;;5112464;28;20088;-85
2022/01/17 07:29:19;;;;;;;;;;;4.30;75.50;;;;;;5104531;28;20020;-84
2022/01/17 07:31:45;;;;;;;12.57;6.57;;;4.30;75.70;;;;;;5106746;28;19908;-85
2022/01/17 07:34:11;;;;;;;13.32;6.60;;;4.30;75.60;;;;;;5097790;28;20632;-85
2022/01/17 07:36:36;;;;;;;;;;;4.10;75.80;;;;;;5102449;28;20534;-84
2022/01/17 07:39:03;;;;;;;11.30;4.77;;;4.10;76.30;;;;;;5104790;28;19920;-82
2022/01/17 07:41:29;;;;;;;12.10;5.43;;;4.10;76.20;;;;;;5108872;28;20039;-87
2022/01/17 07:43:54;;;;;;;21.92;10.63;;;4.00;76.70;;;;;;5104158;28;20026;-86
2022/01/17 07:47:05;;;;;;;20.80;8.35;;;3.90;76.90;;;;;;5103311;28;20020;-86
2022/01/17 07:49:10;;;;;;;10.73;6.73;;;3.90;77.10;;;;;;5103295;28;20159;-87
2022/01/17 07:51:42;;;;;;;20.87;8.13;;;3.80;77.20;;;;;;5103774;28;20484;-87
2022/01/17 07:54:10;;;;;;;10.53;5.13;;;3.80;77.40;;;;;;5101158;28;20020;-87
2022/01/17 07:56:37;;;;;;;9.07;4.20;;;3.80;77.80;;;;;;5110426;28;20019;-85
2022/01/17 07:59:04;;;;;;;15.33;6.83;;;3.80;77.90;;;;;;5104914;28;20023;-87
2022/01/17 08:01:30;;;;;;;13.00;7.10;;;3.80;78.30;;;;;;5104622;28;20389;-83
2022/01/17 08:03:56;;;;;;;;;;;3.80;78.20;;;;;;5104911;28;20118;-82
2022/01/17 08:06:21;;;;;;;5.30;3.07;;;3.80;78.20;;;;;;5106906;28;20357;-83
2022/01/17 08:08:50;;;;;;;;;;;3.90;78.20;;;;;;5102403;28;20110;-84
2022/01/17 08:11:15;;;;;;;14.80;7.17;;;3.90;78.20;;;;;;5099150;28;20002;-83
2022/01/17 08:13:41;;;;;;;;;;;3.90;78.00;;;;;;5103508;28;20094;-83
2022/01/17 08:16:07;;;;;;;6.87;3.93;;;4.00;78.30;;;;;;5100872;28;19912;-83
2022/01/17 08:18:32;;;;;;;9.15;5.25;;;4.00;78.10;;;;;;5098630;28;20040;-83
2022/01/17 08:20:58;;;;;;;;;;;4.00;78.20;;;;;;5110131;28;20046;-89
2022/01/17 08:23:25;;;;;;;10.13;4.13;;;4.00;78.40;;;;;;5103475;28;19915;-85
2022/01/17 08:25:51;;;;;;;9.67;5.47;;;4.00;78.20;;;;;;5101888;28;20027;-85
2022/01/17 08:28:17;;;;;;;;;;;4.00;78.20;;;;;;5111063;28;20042;-85
2022/01/17 08:30:43;;;;;;;16.97;7.87;;;4.10;78.30;;;;;;5105906;28;20285;-85
2022/01/17 08:33:09;;;;;;;16.48;7.25;;;4.10;78.00;;;;;;5105484;28;20031;-85
2022/01/17 08:35:34;;;;;;;;;;;4.20;77.70;;;;;;5102785;28;20234;-85
2022/01/17 08:38:00;;;;;;;17.20;7.60;;;4.20;77.90;;;;;;5111548;28;19958;-85
2022/01/17 08:40:25;;;;;;;9.68;4.63;;;4.30;77.50;;;;;;5106075;28;20020;-85
2022/01/17 08:42:51;;;;;;;;;;;4.30;77.70;;;;;;5099542;28;20023;-84
2022/01/17 08:45:19;;;;;;;9.60;4.83;;;4.30;77.70;;;;;;5100172;28;19915;-84
2022/01/17 08:47:49;;;;;;;16.37;8.13;;;4.30;77.30;;;;;;5102701;28;20031;-85
2022/01/17 08:50:15;;;;;;;13.40;7.47;;;4.40;77.30;;;;;;5101792;28;20020;-86
2022/01/17 08:52:41;;;;;;;;;;;4.40;77.10;;;;;;5101296;28;20107;-86
2022/01/17 08:55:06;;;;;;;12.70;5.83;;;4.40;77.10;;;;;;5104772;28;20328;-84
2022/01/17 08:57:32;;;;;;;;;;;4.50;76.80;;;;;;5103350;28;20019;-85
2022/01/17 09:00:01;;;;;;;8.97;4.87;;;4.50;76.40;;;;;;5099412;28;20318;-85
2022/01/17 09:02:27;;;;;;;7.67;4.40;;;4.50;76.20;;;;;;5104189;28;20090;-85
2022/01/17 09:04:52;;;;;;;4.95;2.85;;;4.50;76.20;;;;;;5099777;28;20046;-85
2022/01/17 09:07:17;;;;;;;;;;;4.50;76.20;;;;;;5107643;28;20527;-84
2022/01/17 09:09:45;;;;;;;14.37;6.30;;;4.60;76.20;;;;;;5106116;28;19911;-85
2022/01/17 09:12:13;;;;;;;5.80;2.97;;;4.60;75.90;;;;;;5101673;28;20489;-85
2022/01/17 09:14:39;;;;;;;11.37;4.73;;;4.70;75.70;;;;;;5098864;28;20028;-86
2022/01/17 09:17:09;;;;;;;;;;;4.70;76.20;;;;;;5100854;28;20557;-85
2022/01/17 09:19:36;;;;;;;12.77;5.33;;;4.60;76.40;;;;;;5106178;28;19914;-86
2022/01/17 09:22:03;;;;;;;10.13;5.13;;;4.50;76.60;;;;;;5108326;28;20032;-86
2022/01/17 09:24:29;;;;;;;12.03;5.93;;;4.50;76.80;;;;;;5106558;28;20040;-86
2022/01/17 09:26:54;;;;;;;15.32;7.13;;;4.40;77.40;;;;;;5104274;28;20028;-86
2022/01/17 09:29:20;;;;;;;13.52;6.75;;;4.40;77.90;;;;;;5097105;28;20077;-86
2022/01/17 09:31:46;;;;;;;;;;;4.40;78.10;;;;;;5106954;28;20051;-85
2022/01/17 09:34:12;;;;;;;10.37;4.90;;;4.30;78.30;;;;;;5098933;28;19954;-86
2022/01/17 09:36:38;;;;;;;;;;;4.40;78.00;;;;;;5112367;28;20016;-87
2022/01/17 09:39:05;;;;;;;10.13;5.10;;;4.30;78.60;;;;;;5104062;28;19973;-86
2022/01/17 09:41:32;;;;;;;13.83;5.97;;;4.30;78.50;;;;;;5100073;28;20015;-86
2022/01/17 09:43:58;;;;;;;13.40;5.57;;;4.30;78.60;;;;;;5100241;28;20115;-86
2022/01/17 09:46:31;;;;;;;12.97;6.00;;;4.20;78.60;;;;;;5098136;28;20023;-85
2022/01/17 09:49:02;;;;;;;43.63;16.77;;;4.20;79.30;;;;;;5108135;28;20024;-85
2022/01/17 09:51:51;;;;;;;17.37;7.10;;;4.10;79.10;;;;;;5103777;28;20149;-85
2022/01/17 09:54:20;;;;;;;7.50;4.00;;;4.10;79.50;;;;;;5097352;28;20040;-86
2022/01/17 09:56:50;;;;;;;10.40;5.43;;;4.00;79.80;;;;;;5105307;28;20277;-86
2022/01/17 09:59:16;;;;;;;12.90;6.53;;;4.00;79.90;;;;;;5107434;28;20020;-85
2022/01/17 10:01:42;;;;;;;11.55;4.93;;;4.00;80.00;;;;;;5102884;28;20046;-85
2022/01/17 10:04:09;;;;;;;10.50;4.40;;;4.00;80.10;;;;;;5112012;28;20023;-85
2022/01/17 10:06:35;;;;;;;7.97;4.07;;;4.00;80.10;;;;;;5101224;28;20460;-85
2022/01/17 10:09:21;;;;;;;15.10;7.07;;;4.00;80.10;;;;;;5109455;28;20019;-87
2022/01/17 10:12:12;;;;;;;14.10;6.40;;;4.00;80.10;;;;;;5114694;28;20084;-86
2022/01/17 10:14:57;;;;;;;11.30;5.80;;;4.10;80.00;;;;;;5119599;28;20027;-84
2022/01/17 10:17:23;;;;;;;12.53;6.80;;;4.20;79.90;;;;;;5121218;28;20096;-85
2022/01/17 10:20:02;;;;;;;15.57;7.43;;;4.20;79.70;;;;;;5116539;28;20036;-84
2022/01/17 10:22:40;;;;;;;16.10;8.87;;;4.20;79.70;;;;;;5127258;28;20028;-85
2022/01/17 10:25:20;;;;;;;6.93;3.60;;;4.20;79.80;;;;;;5131537;28;20008;-85
2022/01/17 10:28:17;;;;;;;10.97;5.63;;;4.20;79.90;;;;;;5122975;28;20036;-84
2022/01/17 10:31:03;;;;;;;13.02;6.53;;;4.20;80.00;;;;;;5120329;28;20012;-86
2022/01/17 10:36:18;;;;;;;10.97;4.80;;;4.30;79.80;;;;;;5109179;28;20062;-85
2022/01/17 10:38:44;;;;;;;9.60;5.53;;;4.30;79.90;;;;;;5110651;28;20024;-86
2022/01/17 10:41:09;;;;;;;;;;;4.40;79.90;;;;;;5108128;28;20072;-85
2022/01/17 10:43:39;;;;;;;12.50;7.20;;;4.40;79.70;;;;;;5106696;28;20003;-86
2022/01/17 10:46:10;;;;;;;7.47;3.73;;;4.40;79.60;;;;;;5104691;28;20039;-86
2022/01/17 10:48:44;;;;;;;5.30;3.10;;;4.40;79.70;;;;;;5101167;28;20057;-86
2022/01/17 10:51:12;;;;;;;11.57;5.70;;;4.40;79.90;;;;;;5109116;28;20072;-86
2022/01/17 10:53:40;;;;;;;13.60;6.70;;;4.40;80.20;;;;;;5108993;28;20032;-86
2022/01/17 10:56:08;;;;;;;7.93;4.53;;;4.40;80.40;;;;;;5110712;28;20099;-86
2022/01/17 10:58:37;;;;;;;8.13;4.40;;;4.40;80.40;;;;;;5111117;28;20057;-87
2022/01/17 11:01:15;;;;;;;14.40;5.97;;;4.30;80.60;;;;;;5097395;28;20081;-87
2022/01/17 11:03:42;;;;;;;9.77;4.87;;;4.30;80.70;;;;;;5102808;28;20096;-86
2022/01/17 11:06:14;;;;;;;17.37;8.30;;;4.40;80.70;;;;;;5108141;28;20076;-86
2022/01/17 11:08:41;;;;;;;20.70;8.97;;;4.30;80.80;;;;;;5099534;28;20353;-85
2022/01/17 11:11:09;;;;;;;9.27;5.37;;;4.40;80.60;;;;;;5102196;28;20077;-86
2022/01/17 11:13:42;;;;;;;9.50;4.93;;;4.40;80.70;;;;;;5104767;28;20022;-86
2022/01/17 11:16:11;;;;;;;7.73;3.77;;;4.30;80.80;;;;;;5104854;28;20043;-86
2022/01/17 11:18:40;;;;;;;8.63;3.90;;;4.30;80.90;;;;;;5105611;28;20040;-86
2022/01/17 11:21:14;;;;;;;8.33;4.57;;;4.30;81.00;;;;;;5111225;28;20572;-86
2022/01/17 11:23:43;;;;;;;5.63;3.20;;;4.30;81.30;;;;;;5111900;28;20110;-86
2022/01/17 11:26:10;;;;;;;9.43;5.33;;;4.30;81.30;;;;;;5111885;28;20023;-86
2022/01/17 11:28:36;;;;;;;6.40;3.50;;;4.30;81.40;;;;;;5106867;28;20024;-86
2022/01/17 11:31:08;;;;;;;;;;;4.30;81.40;;;;;;5108748;28;20023;-86
2022/01/17 11:33:35;;;;;;;9.60;3.93;;;4.30;81.60;;;;;;5104078;28;19908;-86
2022/01/17 11:36:01;;;;;;;7.27;4.37;;;4.30;81.50;;;;;;5104860;28;20020;-86
2022/01/17 11:38:31;;;;;;;;;;;4.20;81.70;;;;;;5106772;28;20503;-85
2022/01/17 11:40:59;;;;;;;11.23;5.30;;;4.30;81.80;;;;;;5102035;28;19988;-85
2022/01/17 11:43:33;;;;;;;8.43;4.63;;;4.30;81.40;;;;;;5108899;28;20026;-87
2022/01/17 11:46:19;;;;;;;12.33;5.03;;;4.30;81.70;;;;;;5109819;28;20015;-86
2022/01/17 11:49:06;;;;;;;8.93;3.92;;;4.20;81.80;;;;;;5103216;28;20031;-85
2022/01/17 11:51:48;;;;;;;9.77;5.43;;;4.30;82.00;;;;;;5101325;28;20167;-85
2022/01/17 11:54:25;;;;;;;12.67;6.63;;;4.30;81.90;;;;;;5109715;28;20340;-86
2022/01/17 11:56:54;;;;;;;19.95;8.13;;;4.20;82.00;;;;;;5102966;28;20517;-86
2022/01/17 11:59:27;;;;;;;13.47;6.33;;;4.20;81.80;;;;;;5110366;28;20024;-86
2022/01/17 12:02:28;;;;;;;12.70;6.20;;;4.20;82.00;;;;;;5106356;28;20028;-86
2022/01/17 12:05:25;;;;;;;12.70;6.13;;;4.30;82.00;;;;;;5105698;28;20555;-86
2022/01/17 12:07:54;;;;;;;9.93;4.35;;;4.30;82.00;;;;;;5088884;28;20056;-86
2022/01/17 12:10:23;;;;;;;6.87;4.20;;;4.30;81.80;;;;;;5101709;28;20480;-86
2022/01/17 12:13:11;;;;;;;7.53;3.60;;;4.30;81.90;;;;;;5099344;28;20110;-87
2022/01/17 12:16:06;;;;;;;7.50;2.83;;;4.30;82.10;;;;;;5112379;28;20035;-86
2022/01/17 12:18:34;;;;;;;8.70;3.60;;;4.30;82.10;;;;;;5108088;28;20043;-86
2022/01/17 12:24:22;;;;;;;6.83;1.10;;;4.20;81.40;;;;;;5113800;28;20494;-86
2022/01/17 12:27:10;;;;;;;;;;;3.70;79.60;;;;;;5104967;28;20028;-86
2022/01/17 12:33:01;;;;;;;1.93;0.90;;;2.90;80.20;;;;;;5091112;28;20061;-87
2022/01/17 12:35:30;;;;;;;0.93;0.70;;;2.70;80.80;;;;;;5110890;28;20015;-87
2022/01/17 12:38:06;;;;;;;1.50;0.80;;;2.60;81.20;;;;;;5105171;28;20480;-88
2022/01/17 12:40:38;;;;;;;1.17;0.75;;;2.40;81.00;;;;;;5102988;28;20024;-88
2022/01/17 12:43:15;;;;;;;0.80;0.57;;;2.40;81.20;;;;;;5104443;28;20035;-87
2022/01/17 12:45:45;;;;;;;1.33;0.70;;;2.30;81.10;;;;;;5105069;28;20153;-87
2022/01/17 12:48:21;;;;;;;3.27;0.90;;;2.20;81.20;;;;;;5104002;28;20035;-87
2022/01/17 12:50:48;;;;;;;0.60;0.60;;;2.10;81.20;;;;;;5104196;28;20024;-87
2022/01/17 12:53:16;;;;;;;2.03;0.93;;;2.10;81.10;;;;;;5095724;28;20270;-88
2022/01/17 12:55:45;;;;;;;2.90;1.23;;;2.00;80.90;;;;;;5113268;28;20028;-88
2022/01/17 12:58:19;;;;;;;1.47;0.90;;;2.00;80.90;;;;;;5107922;28;20462;-88
2022/01/17 13:00:51;;;;;;;1.50;0.90;;;1.90;81.10;;;;;;5109306;28;20380;-87
2022/01/17 13:03:18;;;;;;;5.13;1.37;;;1.90;81.10;;;;;;5104670;28;20023;-87
2022/01/17 13:05:44;;;;;;;1.47;0.93;;;1.80;81.20;;;;;;5102027;28;20067;-86
2022/01/17 13:08:11;;;;;;;2.97;0.97;;;1.80;81.30;;;;;;5109004;28;20016;-87
2022/01/17 13:10:37;;;;;;;2.03;1.20;;;1.90;81.30;;;;;;5117427;28;20050;-87
2022/01/17 13:13:04;;;;;;;1.53;0.97;;;1.90;81.20;;;;;;5110829;28;20019;-87
2022/01/17 13:15:33;;;;;;;2.30;1.03;;;1.90;81.10;;;;;;5106307;28;20022;-87
2022/01/17 13:17:59;;;;;;;3.50;1.23;;;1.90;81.10;;;;;;5100455;28;20069;-87
2022/01/17 13:20:26;;;;;;;;;;;1.90;81.00;;;;;;5100859;28;20527;-87
2022/01/17 13:22:57;;;;;;;2.58;1.13;;;1.90;81.10;;;;;;5099789;28;19904;-87
2022/01/17 13:25:23;;;;;;;3.13;1.03;;;1.90;80.60;;;;;;5103804;28;20099;-86
2022/01/17 13:27:57;;;;;;;;;;;1.90;80.70;;;;;;5103933;28;20048;-86
2022/01/17 13:30:23;;;;;;;4.77;1.63;;;1.90;80.30;;;;;;5104243;28;19908;-87
2022/01/17 13:32:49;;;;;;;;;;;1.90;80.30;;;;;;5109612;28;20038;-87
2022/01/17 13:35:25;;;;;;;3.07;1.40;;;1.90;79.80;;;;;;5100259;28;20326;-87